Time;durP1;ratioP1;P1;durP2;ratioP2;P2;SDS_P1;SDS_P2;PMS_P1;PMS_P2;Temp;Humidity;BMP_temperature;BMP_pressure;BME280_temperature;BME280_humidity;BME280_pressure;Samples;Min_cycle;Max_cycle;Signal;HPM_P1;HPM_P2
2022/01/26 00:06:41;;;;;;;16.87;9.40;;;0.90;99.90;;;;;;5052192;28;20720;-71
2022/01/26 00:09:07;;;;;;;16.53;9.50;;;0.90;99.90;;;;;;5052246;28;20187;-72
2022/01/26 00:11:34;;;;;;;13.77;8.77;;;0.80;99.90;;;;;;5052429;28;20184;-72
2022/01/26 00:14:02;;;;;;;14.97;10.47;;;0.90;99.90;;;;;;5052289;28;20179;-72
2022/01/26 00:16:39;;;;;;;12.83;9.17;;;0.90;99.90;;;;;;5051750;28;20199;-73
2022/01/26 00:19:08;;;;;;;14.93;9.93;;;0.90;99.90;;;;;;5052131;28;20203;-72
2022/01/26 00:21:48;;;;;;;14.67;9.77;;;1.00;99.90;;;;;;5058420;28;20187;-72
2022/01/26 00:29:35;;;;;;;12.37;8.33;;;0.80;99.90;;;;;;5087711;28;20721;-72
2022/01/26 00:43:00;;;;;;;11.93;8.00;;;0.90;99.90;;;;;;5061087;28;20198;-71
2022/01/26 00:45:33;;;;;;;11.33;7.83;;;0.80;99.90;;;;;;5052335;28;20183;-72
2022/01/26 00:48:03;;;;;;;15.80;8.67;;;0.80;99.90;;;;;;5051859;28;20182;-72
2022/01/26 00:50:29;;;;;;;12.03;8.03;;;0.80;99.90;;;;;;5051914;28;20175;-72
2022/01/26 00:52:55;;;;;;;10.97;8.10;;;0.80;99.90;;;;;;5051611;28;20563;-72
2022/01/26 00:55:21;;;;;;;11.47;7.67;;;0.80;99.90;;;;;;5051366;28;20172;-70
2022/01/26 00:57:48;;;;;;;10.67;7.87;;;0.90;99.90;;;;;;5051673;28;20540;-71
2022/01/26 01:00:17;;;;;;;13.67;8.10;;;1.00;99.90;;;;;;5051967;28;20194;-72
2022/01/26 01:02:43;;;;;;;12.93;8.57;;;0.90;99.90;;;;;;5051635;28;20222;-72
2022/01/26 01:05:23;;;;;;;11.43;7.87;;;1.00;99.90;;;;;;5051276;28;20178;-71
2022/01/26 01:07:53;;;;;;;13.97;9.10;;;0.90;99.90;;;;;;5051962;28;20183;-71
2022/01/26 01:10:22;;;;;;;11.57;8.07;;;1.00;99.90;;;;;;5051574;28;20172;-71
2022/01/26 01:12:50;;;;;;;11.53;8.10;;;0.90;99.90;;;;;;5051406;28;20203;-72
2022/01/26 01:15:17;;;;;;;12.00;7.83;;;1.00;99.90;;;;;;5051223;28;20571;-72
2022/01/26 01:17:48;;;;;;;13.33;8.23;;;1.00;99.90;;;;;;5051957;28;20208;-72
2022/01/26 01:28:13;;;;;;;10.97;7.67;;;0.90;99.90;;;;;;5089858;28;20189;-72
2022/01/26 01:30:43;;;;;;;13.40;8.73;;;0.90;99.90;;;;;;5091657;28;20182;-72
2022/01/26 01:33:14;;;;;;;12.87;7.77;;;0.80;99.90;;;;;;5082124;28;20174;-72
2022/01/26 01:35:43;;;;;;;10.93;8.20;;;0.90;99.90;;;;;;5085695;28;20186;-72
2022/01/26 01:38:11;;;;;;;13.37;8.77;;;1.00;99.90;;;;;;5091312;28;20209;-72
2022/01/26 01:40:38;;;;;;;12.73;9.17;;;1.00;99.90;;;;;;5091712;28;20181;-72
2022/01/26 01:43:05;;;;;;;12.20;9.20;;;0.90;99.90;;;;;;5068535;28;20886;-71
2022/01/26 01:45:41;;;;;;;13.70;8.43;;;1.00;99.90;;;;;;5086583;28;20214;-72
2022/01/26 01:48:07;;;;;;;17.63;9.93;;;1.10;99.90;;;;;;5051137;28;20267;-72
2022/01/26 01:50:38;;;;;;;15.30;9.93;;;1.10;99.90;;;;;;5051117;28;20650;-72
2022/01/26 01:53:04;;;;;;;11.57;8.67;;;1.00;99.90;;;;;;5051149;28;20168;-72
2022/01/26 01:55:32;;;;;;;15.77;9.90;;;1.00;99.90;;;;;;5051842;28;20526;-72
2022/01/26 01:57:59;;;;;;;14.70;8.73;;;1.00;99.90;;;;;;5090443;28;20934;-72
2022/01/26 02:00:28;;;;;;;14.47;8.87;;;1.00;99.90;;;;;;5057908;28;20199;-72
2022/01/26 02:02:54;;;;;;;14.73;9.40;;;1.10;99.90;;;;;;5050905;28;20200;-71
2022/01/26 02:05:20;;;;;;;14.77;9.67;;;1.20;99.90;;;;;;5050804;28;20183;-72
2022/01/26 02:07:45;;;;;;;13.93;7.97;;;1.20;99.90;;;;;;5051237;28;20682;-71
2022/01/26 02:10:11;;;;;;;16.77;8.30;;;1.10;99.90;;;;;;5069110;28;20180;-71
2022/01/26 02:12:45;;;;;;;12.83;9.90;;;1.20;99.90;;;;;;5068126;28;20202;-72
2022/01/26 02:15:14;;;;;;;13.10;8.50;;;1.10;99.90;;;;;;5054660;28;20681;-72
2022/01/26 02:50:56;;;;;;;13.20;8.33;;;0.90;99.90;;;;;;5053986;28;20194;-72
2022/01/26 02:53:21;;;;;;;15.40;9.23;;;0.90;99.90;;;;;;5053341;28;20196;-72
2022/01/26 02:55:50;;;;;;;13.67;8.83;;;0.90;99.90;;;;;;5053290;28;20666;-72
2022/01/26 03:01:26;;;;;;;13.53;9.10;;;0.80;99.90;;;;;;5053826;28;20176;-72
2022/01/26 03:06:24;;;;;;;15.87;10.40;;;0.90;99.90;;;;;;5053296;28;20571;-72
2022/01/26 03:08:57;;;;;;;16.67;10.23;;;0.80;99.90;;;;;;5053613;28;20195;-72
2022/01/26 03:11:27;;;;;;;16.93;9.80;;;0.80;99.90;;;;;;5053456;28;20255;-71
2022/01/26 03:14:00;;;;;;;17.63;11.20;;;0.80;99.90;;;;;;5053513;28;20176;-72
2022/01/26 03:16:33;;;;;;;18.07;10.37;;;0.70;99.90;;;;;;5053512;28;20243;-71
2022/01/26 03:19:16;;;;;;;17.40;10.80;;;0.70;99.90;;;;;;5053504;28;20176;-69
2022/01/26 03:22:14;;;;;;;15.47;9.37;;;0.70;99.90;;;;;;5053354;28;20210;-69
2022/01/26 03:28:15;;;;;;;18.87;10.77;;;0.80;99.90;;;;;;5078246;28;20210;-70
2022/01/26 03:38:20;;;;;;;19.80;10.03;;;0.90;99.90;;;;;;5053056;28;20191;-70
2022/01/26 03:40:48;;;;;;;22.27;11.63;;;0.90;99.90;;;;;;5052925;28;20660;-69
2022/01/26 03:43:13;;;;;;;17.10;11.13;;;0.90;99.90;;;;;;5052744;28;20298;-69
2022/01/26 03:45:39;;;;;;;17.53;10.07;;;0.80;99.90;;;;;;5052555;28;20673;-69
2022/01/26 03:48:04;;;;;;;18.93;11.50;;;0.80;99.90;;;;;;5052797;28;20174;-69
2022/01/26 03:50:30;;;;;;;19.27;10.53;;;0.80;99.90;;;;;;5058236;28;20258;-69
2022/01/26 03:52:56;;;;;;;20.83;10.70;;;0.90;99.90;;;;;;5084637;28;20278;-69
2022/01/26 03:55:21;;;;;;;18.13;11.07;;;0.90;99.90;;;;;;5072334;28;20206;-69
2022/01/26 03:57:47;;;;;;;21.63;11.50;;;0.90;99.90;;;;;;5072557;28;20209;-69
2022/01/26 04:00:13;;;;;;;20.93;10.87;;;1.00;99.90;;;;;;5072617;28;20171;-69
2022/01/26 04:02:39;;;;;;;22.83;11.90;;;1.00;99.90;;;;;;5056052;28;20558;-70
2022/01/26 04:05:09;;;;;;;17.50;9.73;;;1.20;99.90;;;;;;5052149;28;20195;-69
2022/01/26 04:07:35;;;;;;;16.53;10.03;;;1.20;99.90;;;;;;5052532;28;20565;-69
2022/01/26 04:10:21;;;;;;;17.43;10.60;;;1.20;99.90;;;;;;5052781;28;20258;-69
2022/01/26 04:12:46;;;;;;;20.87;11.07;;;1.10;99.90;;;;;;5052197;28;20274;-69
2022/01/26 04:15:24;;;;;;;22.30;12.07;;;1.10;99.90;;;;;;5052080;28;20204;-69
2022/01/26 04:17:49;;;;;;;20.90;11.27;;;1.10;99.90;;;;;;5052690;28;20640;-69
2022/01/26 04:20:15;;;;;;;21.60;11.90;;;1.10;99.90;;;;;;5034422;28;20180;-69
2022/01/26 04:22:51;;;;;;;22.60;12.07;;;1.00;99.90;;;;;;5052091;28;20199;-69
2022/01/26 04:25:21;;;;;;;16.43;10.63;;;1.10;99.90;;;;;;5056347;28;20731;-70
2022/01/26 04:27:50;;;;;;;18.90;11.03;;;1.20;99.90;;;;;;5052020;28;20564;-69
2022/01/26 04:30:16;;;;;;;19.97;11.03;;;1.10;99.90;;;;;;5053277;28;20184;-69
2022/01/26 04:32:42;;;;;;;21.43;10.20;;;1.10;99.90;;;;;;5055783;28;20654;-69
2022/01/26 04:35:09;;;;;;;18.17;10.90;;;1.20;99.90;;;;;;5071492;28;20167;-69
2022/01/26 04:40:15;;;;;;;21.03;11.73;;;1.20;99.90;;;;;;5071534;28;20649;-69
2022/01/26 04:42:57;;;;;;;22.03;11.90;;;1.10;99.90;;;;;;5049923;28;20183;-69
2022/01/26 04:45:22;;;;;;;19.73;11.63;;;1.10;99.90;;;;;;5051585;28;20168;-69
2022/01/26 04:47:48;;;;;;;21.93;11.27;;;1.20;99.90;;;;;;5051802;28;20531;-70
2022/01/26 04:50:14;;;;;;;17.80;11.57;;;1.20;99.90;;;;;;5054120;28;20179;-70
2022/01/26 04:52:40;;;;;;;23.47;12.17;;;1.30;99.90;;;;;;5071349;28;20175;-69
2022/01/26 04:55:06;;;;;;;20.40;11.73;;;1.20;99.90;;;;;;5071532;28;20190;-69
2022/01/26 04:57:32;;;;;;;17.97;11.33;;;1.20;99.90;;;;;;5071385;28;20187;-69
2022/01/26 04:59:58;;;;;;;22.60;12.47;;;1.10;99.90;;;;;;5071173;28;20213;-69
2022/01/26 05:02:24;;;;;;;20.77;12.13;;;1.10;99.90;;;;;;5071852;28;20797;-69
2022/01/26 05:04:49;;;;;;;24.20;11.67;;;1.00;99.90;;;;;;5071471;28;20195;-69
2022/01/26 05:07:15;;;;;;;25.03;13.23;;;1.00;99.90;;;;;;5070778;28;20281;-69
2022/01/26 05:09:41;;;;;;;23.93;13.20;;;0.90;99.90;;;;;;5071110;28;20556;-69
2022/01/26 05:12:08;;;;;;;25.63;12.70;;;0.90;99.90;;;;;;5070520;28;20216;-70
2022/01/26 05:14:34;;;;;;;24.07;13.10;;;0.90;99.90;;;;;;5067380;28;20274;-69
2022/01/26 05:16:59;;;;;;;24.17;13.13;;;0.90;99.90;;;;;;5079306;28;20273;-69
2022/01/26 05:19:25;;;;;;;20.70;11.70;;;0.90;99.90;;;;;;5062808;28;20271;-69
2022/01/26 05:21:51;;;;;;;22.20;13.30;;;1.00;99.90;;;;;;5060439;28;20190;-69
2022/01/26 05:24:16;;;;;;;20.17;12.03;;;1.10;99.90;;;;;;5083037;28;20206;-69
2022/01/26 05:26:42;;;;;;;25.43;13.07;;;1.00;99.90;;;;;;5091094;28;20396;-70
2022/01/26 05:29:08;;;;;;;23.70;12.63;;;1.00;99.90;;;;;;5063008;28;20175;-69
2022/01/26 05:31:33;;;;;;;22.47;12.43;;;0.90;99.90;;;;;;5071348;28;20195;-69
2022/01/26 05:33:59;;;;;;;21.77;12.70;;;0.80;99.90;;;;;;5079492;28;20629;-69
2022/01/26 05:36:26;;;;;;;25.47;13.67;;;0.80;99.90;;;;;;5065868;28;20207;-70
2022/01/26 05:38:51;;;;;;;27.97;13.20;;;0.80;99.90;;;;;;5051021;28;20180;-69
2022/01/26 05:41:17;;;;;;;25.87;13.63;;;0.70;99.90;;;;;;5066867;28;20190;-69
2022/01/26 05:43:43;;;;;;;19.43;11.47;;;0.70;99.90;;;;;;5067566;28;20234;-69
2022/01/26 05:46:14;;;;;;;24.33;13.30;;;0.80;99.90;;;;;;5072313;28;20194;-69
2022/01/26 05:48:44;;;;;;;23.63;12.60;;;0.90;99.90;;;;;;5071707;28;20186;-70
2022/01/26 05:51:11;;;;;;;22.53;12.60;;;0.90;99.90;;;;;;5075113;28;20286;-69
2022/01/26 05:53:38;;;;;;;21.97;13.10;;;0.90;99.90;;;;;;5074881;28;20195;-69
2022/01/26 05:56:04;;;;;;;24.00;12.83;;;0.90;99.90;;;;;;5073541;28;20541;-69
2022/01/26 05:58:30;;;;;;;18.90;10.87;;;0.90;99.90;;;;;;5056334;28;20255;-69
2022/01/26 06:00:58;;;;;;;25.83;12.80;;;0.90;99.90;;;;;;5070659;28;20187;-70
2022/01/26 06:03:24;;;;;;;23.47;12.67;;;0.90;99.90;;;;;;5072364;28;20744;-71
2022/01/26 06:05:50;;;;;;;25.83;13.63;;;1.00;99.90;;;;;;5071624;28;20294;-71
2022/01/26 06:08:16;;;;;;;23.57;12.87;;;1.00;99.90;;;;;;5074518;28;20193;-70
2022/01/26 06:10:41;;;;;;;26.13;13.37;;;1.00;99.90;;;;;;5074593;28;20182;-70
2022/01/26 06:13:07;;;;;;;21.20;13.20;;;1.00;99.90;;;;;;5073079;28;20186;-69
2022/01/26 06:15:33;;;;;;;19.63;12.37;;;1.10;99.90;;;;;;5070512;28;20240;-70
2022/01/26 06:17:59;;;;;;;21.73;11.97;;;1.20;99.90;;;;;;5074406;28;20592;-69
2022/01/26 06:20:25;;;;;;;22.40;11.43;;;1.30;99.90;;;;;;5071349;28;20179;-70
2022/01/26 06:22:51;;;;;;;19.50;10.73;;;1.40;99.90;;;;;;5063326;28;20894;-70
2022/01/26 06:25:16;;;;;;;20.37;12.67;;;1.50;99.90;;;;;;5072178;28;20274;-71
2022/01/26 06:27:44;;;;;;;20.77;11.77;;;1.60;99.90;;;;;;5074168;28;20195;-70
2022/01/26 06:30:11;;;;;;;19.90;12.10;;;1.60;99.90;;;;;;5070141;28;20242;-70
2022/01/26 06:32:37;;;;;;;22.97;12.40;;;1.60;99.90;;;;;;5034648;28;20276;-70
2022/01/26 06:35:06;;;;;;;22.07;12.17;;;1.60;99.90;;;;;;5033979;28;20200;-70
2022/01/26 06:37:31;;;;;;;22.37;12.40;;;1.50;99.90;;;;;;5033908;28;20195;-70
2022/01/26 06:39:57;;;;;;;21.37;13.17;;;1.40;99.90;;;;;;5061291;28;20238;-70
2022/01/26 06:42:27;;;;;;;23.70;12.73;;;1.40;99.90;;;;;;5040082;28;20183;-70
2022/01/26 06:47:47;;;;;;;21.20;13.23;;;1.50;99.90;;;;;;5045859;28;20788;-71
2022/01/26 06:50:07;;;;;;;21.27;12.60;;;1.50;99.90;;;;;;5033539;28;20176;-71
2022/01/26 06:52:33;;;;;;;23.57;12.93;;;1.50;99.90;;;;;;5033922;28;20653;-71
2022/01/26 06:54:58;;;;;;;22.27;12.23;;;1.50;99.90;;;;;;5033530;28;20256;-71
2022/01/26 06:57:24;;;;;;;24.67;13.07;;;1.50;99.90;;;;;;5049185;28;20253;-71
2022/01/26 06:59:49;;;;;;;24.03;12.23;;;1.50;99.90;;;;;;5053636;28;20187;-71
2022/01/26 07:02:15;;;;;;;19.90;12.03;;;1.60;99.90;;;;;;5053676;28;20580;-70
2022/01/26 07:04:41;;;;;;;23.87;13.43;;;1.70;99.90;;;;;;5047304;28;20669;-71
2022/01/26 07:07:06;;;;;;;25.33;12.47;;;1.60;99.90;;;;;;5044155;28;20203;-70
2022/01/26 07:09:32;;;;;;;21.80;13.47;;;1.80;99.90;;;;;;5043108;28;20171;-70
2022/01/26 07:11:57;;;;;;;20.67;12.17;;;1.70;99.90;;;;;;5044094;28;20631;-70
2022/01/26 07:19:46;;;;;;;20.03;12.60;;;1.70;99.90;;;;;;5044621;28;20176;-69
2022/01/26 07:19:55;;;;;;;21.80;11.47;;;1.60;99.90;;;;;;5033392;28;20657;-69
2022/01/26 07:22:21;;;;;;;19.93;11.43;;;1.60;99.90;;;;;;5033513;28;20180;-69
2022/01/26 07:24:46;;;;;;;16.33;9.23;;;1.60;99.90;;;;;;5042090;28;20208;-70
2022/01/26 07:27:12;;;;;;;18.43;11.60;;;1.50;99.90;;;;;;5053348;28;20200;-70
2022/01/26 07:29:38;;;;;;;18.73;11.20;;;1.50;99.90;;;;;;5053026;28;20160;-70
2022/01/26 07:32:06;;;;;;;19.20;11.20;;;1.40;99.90;;;;;;5053190;28;20203;-70
2022/01/26 07:34:32;;;;;;;19.77;12.10;;;1.40;99.90;;;;;;5051432;28;20231;-70
2022/01/26 07:37:03;;;;;;;16.97;10.43;;;1.50;99.90;;;;;;5050720;28;20195;-70
2022/01/26 07:39:49;;;;;;;16.27;10.70;;;1.60;99.90;;;;;;5051033;28;20168;-69
2022/01/26 07:42:15;;;;;;;17.77;10.90;;;1.70;99.90;;;;;;5051328;28;20544;-69
2022/01/26 07:44:41;;;;;;;21.50;11.97;;;1.90;99.90;;;;;;5050914;28;20211;-69
2022/01/26 07:47:07;;;;;;;19.97;11.13;;;2.00;99.90;;;;;;5050548;28;20180;-69
2022/01/26 07:49:33;;;;;;;20.93;11.50;;;2.10;99.90;;;;;;5065395;28;20194;-69
2022/01/26 07:51:59;;;;;;;18.10;11.03;;;2.10;99.90;;;;;;5074372;28;20652;-69
2022/01/26 07:54:25;;;;;;;20.07;11.70;;;2.10;99.90;;;;;;5067360;28;20178;-70
2022/01/26 07:56:51;;;;;;;15.73;10.77;;;2.30;99.90;;;;;;5078952;28;20202;-69
2022/01/26 07:59:16;;;;;;;20.03;11.60;;;2.40;99.90;;;;;;5066503;28;20191;-69
2022/01/26 08:01:42;;;;;;;20.07;12.30;;;2.30;99.90;;;;;;5052719;28;20183;-69
2022/01/26 08:04:08;;;;;;;20.67;10.90;;;2.20;99.90;;;;;;5057559;28;20199;-70
2022/01/26 08:06:33;;;;;;;17.63;11.70;;;2.20;99.90;;;;;;5067782;28;20203;-69
2022/01/26 08:08:59;;;;;;;21.47;12.80;;;2.30;99.90;;;;;;5066142;28;20260;-69
2022/01/26 08:11:24;;;;;;;17.40;9.53;;;2.20;99.90;;;;;;5072084;28;20187;-68
2022/01/26 08:13:51;;;;;;;20.97;12.10;;;2.20;99.90;;;;;;5067246;28;20209;-68
2022/01/26 08:16:18;;;;;;;21.70;11.70;;;2.40;99.90;;;;;;5078184;28;20203;-69
2022/01/26 08:18:44;;;;;;;18.90;10.30;;;2.50;99.90;;;;;;5067406;28;20212;-69
2022/01/26 08:21:10;;;;;;;21.23;12.63;;;2.50;99.90;;;;;;5071465;28;20191;-69
2022/01/26 08:23:37;;;;;;;17.90;11.37;;;2.50;99.90;;;;;;5068793;28;20191;-69
2022/01/26 08:26:03;;;;;;;23.50;13.13;;;2.40;99.90;;;;;;5077223;28;20202;-68
2022/01/26 08:28:35;;;;;;;19.00;11.80;;;2.20;99.90;;;;;;5068191;28;20183;-68
2022/01/26 08:31:01;;;;;;;20.30;12.53;;;2.30;99.90;;;;;;5067383;28;20325;-67
2022/01/26 08:33:26;;;;;;;19.00;11.53;;;2.40;99.90;;;;;;5070447;28;20270;-67
2022/01/26 08:35:52;;;;;;;22.10;11.43;;;2.30;99.90;;;;;;5068088;28;20692;-68
2022/01/26 08:38:19;;;;;;;19.73;11.50;;;2.40;99.90;;;;;;5072408;28;20183;-68
2022/01/26 08:40:46;;;;;;;21.13;12.03;;;2.40;99.90;;;;;;5068644;28;20176;-68
2022/01/26 08:43:12;;;;;;;22.70;12.10;;;2.50;99.90;;;;;;5066608;28;20776;-68
2022/01/26 08:45:38;;;;;;;17.37;11.30;;;2.60;99.90;;;;;;5071746;28;20183;-68
2022/01/26 08:48:04;;;;;;;24.17;13.00;;;2.70;99.90;;;;;;5062233;28;20209;-67
2022/01/26 08:50:29;;;;;;;19.37;12.30;;;2.60;99.90;;;;;;5057915;28;20183;-68
2022/01/26 08:52:55;;;;;;;21.43;12.10;;;2.40;99.90;;;;;;5051534;28;20175;-68
2022/01/26 08:55:21;;;;;;;20.63;11.97;;;2.30;99.90;;;;;;5059972;28;20523;-68
2022/01/26 08:57:46;;;;;;;19.93;10.97;;;2.40;99.90;;;;;;5063234;28;20624;-68
2022/01/26 09:00:13;;;;;;;20.33;11.30;;;2.50;99.90;;;;;;5051743;28;20176;-68
2022/01/26 09:02:38;;;;;;;19.00;11.73;;;2.50;99.90;;;;;;5067474;28;20221;-71
2022/01/26 09:05:06;;;;;;;19.67;11.93;;;2.50;99.90;;;;;;5068929;28;20207;-70
2022/01/26 09:07:32;;;;;;;21.83;11.93;;;2.60;99.90;;;;;;5062313;28;20244;-69
2022/01/26 09:10:01;;;;;;;23.10;12.70;;;2.60;99.90;;;;;;5077098;28;20280;-69
2022/01/26 09:12:27;;;;;;;20.73;12.23;;;2.50;99.90;;;;;;5079662;28;20205;-69
2022/01/26 09:14:54;;;;;;;19.90;12.37;;;2.40;99.90;;;;;;5058620;28;20171;-68
2022/01/26 09:17:20;;;;;;;17.50;12.43;;;2.30;99.90;;;;;;5059735;28;20675;-68
2022/01/26 09:19:47;;;;;;;21.83;12.67;;;2.30;99.90;;;;;;5063396;28;20411;-68
2022/01/26 09:22:15;;;;;;;18.17;11.13;;;2.20;99.90;;;;;;5068294;28;20671;-68
2022/01/26 09:24:42;;;;;;;18.63;11.60;;;2.20;99.90;;;;;;5064113;28;20577;-68
2022/01/26 09:27:12;;;;;;;19.27;11.20;;;2.30;99.90;;;;;;5068419;28;20191;-69
2022/01/26 09:29:38;;;;;;;18.80;11.07;;;2.20;99.90;;;;;;5047603;28;20169;-68
2022/01/26 09:32:04;;;;;;;19.60;11.83;;;2.20;99.90;;;;;;5042982;28;20217;-68
2022/01/26 09:34:35;;;;;;;23.70;11.90;;;2.10;99.90;;;;;;5047943;28;20184;-69
2022/01/26 09:37:02;;;;;;;22.03;12.10;;;2.10;99.90;;;;;;5048584;28;20203;-68
2022/01/26 09:39:27;;;;;;;23.87;11.87;;;2.20;99.90;;;;;;5038427;28;20186;-68
2022/01/26 09:41:53;;;;;;;21.77;11.97;;;2.30;99.90;;;;;;5035334;28;20181;-68
2022/01/26 09:44:19;;;;;;;21.13;12.47;;;2.50;99.90;;;;;;5041892;28;20239;-69
2022/01/26 09:46:46;;;;;;;21.77;11.93;;;2.50;99.90;;;;;;5050047;28;20200;-69
2022/01/26 09:49:15;;;;;;;22.47;10.90;;;2.40;99.90;;;;;;5050462;28;20183;-69
2022/01/26 09:51:43;;;;;;;22.73;11.93;;;2.50;99.90;;;;;;5062289;28;20237;-71
2022/01/26 09:54:14;;;;;;;31.20;13.63;;;2.60;99.90;;;;;;5055873;28;20176;-69
2022/01/26 09:56:41;;;;;;;22.40;12.50;;;2.60;99.90;;;;;;5065302;28;20237;-70
2022/01/26 09:59:07;;;;;;;23.17;13.07;;;2.70;99.90;;;;;;5065613;28;20224;-72
2022/01/26 10:01:43;;;;;;;23.00;12.50;;;2.70;99.90;;;;;;5052096;28;20596;-69
2022/01/26 10:04:36;;;;;;;20.97;12.57;;;2.80;99.90;;;;;;5055525;28;20239;-69
2022/01/26 10:07:27;;;;;;;21.87;12.60;;;2.70;99.90;;;;;;5053840;28;20192;-68
2022/01/26 10:15:31;;;;;;;28.17;14.47;;;2.60;99.90;;;;;;5059272;28;20190;-69
2022/01/26 10:18:18;;;;;;;25.97;14.20;;;2.50;99.90;;;;;;5050947;28;20651;-68
2022/01/26 10:20:54;;;;;;;23.50;13.53;;;2.60;99.90;;;;;;5069218;28;20179;-69
2022/01/26 10:23:21;;;;;;;23.00;13.30;;;2.70;99.90;;;;;;5067954;28;20190;-69
2022/01/26 10:26:00;;;;;;;26.33;15.67;;;2.70;99.90;;;;;;5046745;28;20207;-69
2022/01/26 10:28:26;;;;;;;25.67;15.00;;;2.80;99.90;;;;;;5032730;28;20547;-69
2022/01/26 10:30:52;;;;;;;26.57;12.87;;;2.60;99.90;;;;;;5042691;28;20176;-69
2022/01/26 10:33:17;;;;;;;25.17;14.10;;;2.80;99.90;;;;;;5048041;28;20181;-69
2022/01/26 10:35:44;;;;;;;31.30;13.63;;;2.80;99.90;;;;;;5053794;28;20208;-70
2022/01/26 10:38:09;;;;;;;23.73;15.03;;;2.70;99.90;;;;;;5054246;28;20187;-69
2022/01/26 10:40:39;;;;;;;12.03;8.33;;;2.80;99.90;;;;;;5057786;28;20568;-69
2022/01/26 10:43:12;;;;;;;19.57;10.77;;;3.00;99.90;;;;;;5057954;28;20266;-69
2022/01/26 10:46:05;;;;;;;20.80;11.20;;;3.10;99.90;;;;;;5041788;28;20184;-71
2022/01/26 10:48:55;;;;;;;23.23;13.30;;;3.10;99.90;;;;;;5034125;28;20639;-70
2022/01/26 10:51:38;;;;;;;21.60;14.73;;;2.90;99.90;;;;;;5034021;28;20164;-69
2022/01/26 10:54:17;;;;;;;19.50;12.37;;;2.80;99.90;;;;;;5035637;28;20194;-69
2022/01/26 10:56:43;;;;;;;15.73;9.90;;;2.90;99.90;;;;;;5053122;28;20310;-69
2022/01/26 10:59:09;;;;;;;15.17;9.70;;;3.40;99.90;;;;;;5057361;28;20266;-69
2022/01/26 11:01:35;;;;;;;15.47;9.60;;;3.70;99.90;;;;;;5063103;28;20172;-69
2022/01/26 11:04:01;;;;;;;19.03;10.07;;;3.80;99.90;;;;;;5051723;28;20231;-69
2022/01/26 11:06:29;;;;;;;14.80;8.70;;;3.70;99.90;;;;;;5053168;28;20747;-68
2022/01/26 11:08:59;;;;;;;18.17;9.50;;;3.60;99.90;;;;;;5047885;28;20585;-69
2022/01/26 11:11:25;;;;;;;11.80;8.43;;;3.60;99.90;;;;;;5048980;28;20188;-69
2022/01/26 11:13:52;;;;;;;16.60;9.40;;;3.60;99.90;;;;;;5054557;28;20650;-69
2022/01/26 11:16:18;;;;;;;15.30;9.27;;;3.50;99.90;;;;;;5052444;28;20223;-69
2022/01/26 11:18:51;;;;;;;14.50;8.57;;;3.40;99.90;;;;;;5048229;28;20183;-70
2022/01/26 11:21:25;;;;;;;16.20;9.50;;;3.50;99.90;;;;;;5048152;28;20179;-68
2022/01/26 11:24:02;;;;;;;18.60;9.83;;;3.50;99.90;;;;;;5048238;28;20200;-69
2022/01/26 11:26:28;;;;;;;21.07;9.57;;;3.40;99.90;;;;;;5046631;28;20207;-69
2022/01/26 11:28:53;;;;;;;17.30;10.23;;;3.30;99.90;;;;;;5053269;28;20184;-69
2022/01/26 11:31:19;;;;;;;15.93;8.53;;;3.20;99.90;;;;;;5040635;28;20182;-69
2022/01/26 11:33:48;;;;;;;16.43;9.67;;;3.20;99.90;;;;;;5056369;28;20547;-69
2022/01/26 11:36:17;;;;;;;19.57;9.33;;;3.10;99.90;;;;;;5050198;28;20689;-69
2022/01/26 11:47:20;;;;;;;16.33;9.60;;;2.80;99.90;;;;;;5032355;28;20209;-69
2022/01/26 11:49:46;;;;;;;16.47;9.57;;;2.80;99.90;;;;;;5050333;28;20596;-68
2022/01/26 11:52:22;;;;;;;14.73;8.27;;;2.70;99.90;;;;;;5056542;28;20183;-69
2022/01/26 11:54:53;;;;;;;16.87;9.53;;;2.80;99.90;;;;;;5059376;28;20187;-69
2022/01/26 11:57:52;;;;;;;16.27;10.03;;;2.70;99.90;;;;;;5046046;28;20204;-70
2022/01/26 12:00:42;;;;;;;18.10;10.23;;;2.60;99.90;;;;;;5047117;28;20471;-70
2022/01/26 12:03:21;;;;;;;19.43;11.37;;;2.70;99.90;;;;;;5046440;28;20214;-70
2022/01/26 12:05:47;;;;;;;17.83;9.73;;;2.70;99.90;;;;;;5032764;28;20200;-70
2022/01/26 12:08:14;;;;;;;19.40;11.03;;;2.70;99.90;;;;;;5049331;28;20186;-71
2022/01/26 12:10:43;;;;;;;17.13;10.17;;;2.70;99.90;;;;;;5052381;28;20180;-70
2022/01/26 12:13:12;;;;;;;20.87;10.70;;;2.70;99.90;;;;;;5045355;28;20709;-71
2022/01/26 12:16:25;;;;;;;20.17;10.93;;;2.80;99.90;;;;;;5048958;28;20657;-71
2022/01/26 12:18:38;;;;;;;19.50;11.87;;;2.70;99.90;;;;;;5033822;28;20653;-71
2022/01/26 12:32:38;;;;;;;19.10;9.37;;;2.70;99.90;;;;;;5077429;28;20198;-69
2022/01/26 12:38:41;;;;;;;20.70;10.90;;;2.80;99.90;;;;;;5067784;28;20198;-71
2022/01/26 12:43:48;;;;;;;18.23;10.57;;;2.60;99.90;;;;;;5088402;28;20213;-70
2022/01/26 12:46:25;;;;;;;20.63;11.30;;;2.70;99.90;;;;;;5068645;28;20237;-73
2022/01/26 12:48:56;;;;;;;17.63;9.73;;;2.60;99.90;;;;;;5068895;28;20210;-69
2022/01/26 12:51:22;;;;;;;19.83;11.10;;;2.70;99.90;;;;;;5069772;28;20264;-69
2022/01/26 12:53:53;;;;;;;16.07;9.07;;;2.80;99.90;;;;;;5069722;28;20597;-69
2022/01/26 12:56:18;;;;;;;14.07;7.53;;;2.80;99.90;;;;;;5076885;28;20203;-70
2022/01/26 12:58:44;;;;;;;10.87;6.40;;;2.60;99.90;;;;;;5072442;28;20183;-69
2022/01/26 13:01:17;;;;;;;23.33;8.17;;;2.70;99.90;;;;;;5079165;28;20170;-69
2022/01/26 13:03:42;;;;;;;16.60;9.10;;;2.70;99.90;;;;;;5066132;28;20215;-69
2022/01/26 13:06:29;;;;;;;15.97;9.13;;;2.70;99.90;;;;;;5071844;28;20281;-68
2022/01/26 13:08:57;;;;;;;17.20;9.80;;;2.50;99.90;;;;;;5083346;28;20300;-68
2022/01/26 13:11:33;;;;;;;20.40;11.60;;;2.60;99.90;;;;;;5072848;28;20547;-68
2022/01/26 13:14:24;;;;;;;20.73;10.37;;;2.40;99.90;;;;;;5051541;28;20175;-68
2022/01/26 13:17:33;;;;;;;21.27;11.27;;;2.10;99.90;;;;;;5051251;28;20233;-68
2022/01/26 13:47:01;;;;;;;12.73;6.10;;;2.20;99.90;;;;;;5060792;28;20223;-72
2022/01/26 13:49:44;;;;;;;16.57;9.10;;;2.00;99.90;;;;;;5061757;28;20183;-71
2022/01/26 13:52:30;;;;;;;18.40;10.67;;;2.00;99.90;;;;;;5063819;28;20616;-72
2022/01/26 14:00:11;;;;;;;11.17;6.63;;;1.90;99.90;;;;;;5059980;28;20713;-72
2022/01/26 14:02:38;;;;;;;15.87;9.73;;;2.00;99.90;;;;;;5066010;28;20183;-72
2022/01/26 14:05:05;;;;;;;14.47;8.70;;;2.10;99.90;;;;;;5062151;28;20225;-72
2022/01/26 14:07:30;;;;;;;17.33;9.83;;;2.00;99.90;;;;;;5062301;28;20602;-72
2022/01/26 14:09:56;;;;;;;16.93;9.87;;;1.90;99.90;;;;;;5072419;28;20180;-72
2022/01/26 14:12:27;;;;;;;16.10;8.70;;;1.70;99.90;;;;;;5072966;28;20212;-72
2022/01/26 14:14:56;;;;;;;14.70;7.90;;;1.80;99.90;;;;;;5065905;28;20271;-72
2022/01/26 14:18:04;;;;;;;14.77;10.37;;;1.80;99.90;;;;;;5062917;28;20188;-74
2022/01/26 14:20:39;;;;;;;11.73;7.63;;;1.80;99.90;;;;;;5060508;28;20658;-73
2022/01/26 14:25:44;;;;;;;15.83;9.47;;;1.90;99.90;;;;;;5070116;28;20645;-73
2022/01/26 14:28:13;;;;;;;15.83;9.07;;;1.90;99.90;;;;;;5064290;28;20172;-73
2022/01/26 14:33:37;;;;;;;15.00;10.17;;;1.80;99.90;;;;;;5064228;28;20187;-72
2022/01/26 14:50:57;;;;;;;15.93;10.60;;;1.70;99.90;;;;;;5065111;28;20186;-71
2022/01/26 15:20:06;;;;;;;14.50;9.73;;;1.10;99.90;;;;;;5060316;28;20238;-73
2022/01/26 15:29:53;;;;;;;14.17;10.30;;;1.10;99.90;;;;;;5063716;28;20191;-73
2022/01/26 15:40:57;;;;;;;10.93;7.60;;;0.90;99.90;;;;;;5047285;28;20214;-72
2022/01/26 15:51:11;;;;;;;10.13;5.97;;;0.80;99.90;;;;;;5042314;28;20663;-72
2022/01/26 16:04:17;;;;;;;12.10;6.83;;;0.60;99.90;;;;;;5054066;28;20181;-72
2022/01/26 16:07:26;;;;;;;9.67;7.00;;;0.60;99.90;;;;;;5055964;28;20647;-73
2022/01/26 16:12:43;;;;;;;9.60;6.53;;;0.60;99.90;;;;;;5043571;28;20191;-72
2022/01/26 16:21:06;;;;;;;11.40;7.67;;;0.70;99.90;;;;;;5038671;28;20270;-70
2022/01/26 16:26:43;;;;;;;12.00;7.90;;;0.60;99.90;;;;;;5077959;28;20226;-71
2022/01/26 18:05:26;;;;;;;10.20;7.23;;;0.50;99.90;;;;;;5054833;28;20207;-70
2022/01/26 18:16:00;;;;;;;10.93;8.23;;;0.50;99.90;;;;;;5068820;28;20179;-72
2022/01/26 18:26:50;;;;;;;10.07;7.50;;;0.40;99.90;;;;;;5069873;28;20313;-70
2022/01/26 18:51:17;;;;;;;7.43;6.67;;;0.40;99.90;;;;;;5072668;28;20194;-71
2022/01/26 18:53:42;;;;;;;13.50;8.83;;;0.30;99.90;;;;;;5078926;28;20257;-71
2022/01/26 18:56:08;;;;;;;13.03;8.30;;;0.30;99.90;;;;;;5069426;28;20257;-71
2022/01/26 18:58:33;;;;;;;9.80;8.53;;;0.20;99.90;;;;;;5068075;28;20176;-71
2022/01/26 19:00:59;;;;;;;10.57;8.13;;;0.20;99.90;;;;;;5064978;28;20691;-71
2022/01/26 19:03:24;;;;;;;8.67;7.33;;;0.20;99.90;;;;;;5054757;28;20189;-72
2022/01/26 19:05:50;;;;;;;9.47;7.50;;;0.20;99.90;;;;;;5071379;28;20657;-73
2022/01/26 19:08:16;;;;;;;8.00;6.57;;;0.20;99.90;;;;;;5063355;28;20183;-73
2022/01/26 19:10:41;;;;;;;8.17;7.00;;;0.20;99.90;;;;;;5070351;28;20179;-73